Time,TemperatureF,DewpointF,PressureIn,WindDirection,WindDirectionDegrees,WindSpeedMPH,WindSpeedGustMPH,Humidity,HourlyPrecipIn,Conditions,Clouds,dailyrainin,SoftwareType,DateUTC
2013-01-28 00:05:00,22.5,22.5,30.39,North,3,2.0,6.0,100,0.00,,,0.00,Wunderground v.1.15,2013-01-28 05:05:00,
2013-01-28 00:14:00,22.7,22.7,30.38,North,2,2.0,3.0,100,0.00,,,0.00,Wunderground v.1.15,2013-01-28 05:14:00,
2013-01-28 00:20:00,22.9,22.9,30.38,North,2,1.0,1.0,100,0.00,,,0.00,Wunderground v.1.15,2013-01-28 05:20:00,
2013-01-28 00:30:00,22.7,22.7,30.38,North,2,2.0,2.0,100,0.00,,,0.00,Wunderground v.1.15,2013-01-28 05:30:00,
2013-01-28 00:35:00,22.5,22.5,30.38,North,2,2.0,2.0,100,0.00,,,0.00,Wunderground v.1.15,2013-01-28 05:35:00,
2013-01-28 00:40:00,22.4,22.4,30.38,North,2,2.0,2.0,100,0.00,,,0.00,Wunderground v.1.15,2013-01-28 05:40:00,
2013-01-28 00:50:00,21.8,21.8,30.38,North,2,1.0,1.0,100,0.00,,,0.00,Wunderground v.1.15,2013-01-28 05:50:00,
2013-01-28 01:00:00,21.1,21.1,30.38,North,2,1.0,2.0,100,0.00,,,0.00,Wunderground v.1.15,2013-01-28 06:00:00,
2013-01-28 01:10:00,20.5,20.5,30.38,North,2,2.0,2.0,100,0.00,,,0.00,Wunderground v.1.15,2013-01-28 06:10:00,
2013-01-28 01:20:00,19.9,19.9,30.38,North,2,2.0,2.0,100,0.00,,,0.00,Wunderground v.1.15,2013-01-28 06:20:00,
2013-01-28 01:30:00,19.4,19.4,30.38,North,2,2.0,2.0,100,0.00,,,0.00,Wunderground v.1.15,2013-01-28 06:30:00,
2013-01-28 01:35:00,19.2,19.2,30.38,North,2,2.0,3.0,100,0.00,,,0.00,Wunderground v.1.15,2013-01-28 06:35:00,
2013-01-28 01:45:00,18.9,18.9,30.37,North,2,2.0,2.0,100,0.00,,,0.00,Wunderground v.1.15,2013-01-28 06:45:00,
2013-01-28 01:50:00,18.8,18.8,30.37,North,2,2.0,2.0,100,0.00,,,0.00,Wunderground v.1.15,2013-01-28 06:50:00,
2013-01-28 02:00:00,18.4,18.4,30.37,North,2,2.0,2.0,100,0.00,,,0.00,Wunderground v.1.15,2013-01-28 07:00:00,
2013-01-28 02:05:00,18.3,18.3,30.37,North,2,1.0,2.0,100,0.00,,,0.00,Wunderground v.1.15,2013-01-28 07:05:00,
2013-01-28 02:15:00,18.0,18.0,30.38,North,2,1.0,1.0,100,0.00,,,0.00,Wunderground v.1.15,2013-01-28 07:15:00,
2013-01-28 02:20:00,17.8,17.8,30.38,North,2,1.0,1.0,100,0.00,,,0.00,Wunderground v.1.15,2013-01-28 07:20:00,
2013-01-28 02:25:00,17.8,17.8,30.38,North,2,1.0,1.0,100,0.00,,,0.00,Wunderground v.1.15,2013-01-28 07:25:00,
2013-01-28 02:30:00,17.7,17.7,30.37,North,2,1.0,1.0,100,0.00,,,0.00,Wunderground v.1.15,2013-01-28 07:30:00,
2013-01-28 02:35:00,17.5,17.5,30.37,North,2,1.0,1.0,100,0.00,,,0.00,Wunderground v.1.15,2013-01-28 07:35:00,
2013-01-28 02:44:00,17.3,17.3,30.38,North,2,2.0,2.0,100,0.00,,,0.00,Wunderground v.1.15,2013-01-28 07:44:00,
2013-01-28 02:50:00,17.3,17.3,30.38,North,2,1.0,1.0,100,0.00,,,0.00,Wunderground v.1.15,2013-01-28 07:50:00,
2013-01-28 03:00:00,17.2,17.2,30.37,North,2,1.0,1.0,100,0.00,,,0.00,Wunderground v.1.15,2013-01-28 08:00:00,
2013-01-28 03:10:00,16.9,16.9,30.37,North,2,0.0,0.0,100,0.00,,,0.00,Wunderground v.1.15,2013-01-28 08:10:00,
2013-01-28 03:20:00,16.7,16.7,30.37,North,2,1.0,1.0,100,0.00,,,0.00,Wunderground v.1.15,2013-01-28 08:20:00,
2013-01-28 03:30:00,16.4,16.4,30.37,North,2,1.0,1.0,100,0.00,,,0.00,Wunderground v.1.15,2013-01-28 08:30:00,
2013-01-28 03:40:00,16.4,16.4,30.37,North,2,1.0,1.0,100,0.00,,,0.00,Wunderground v.1.15,2013-01-28 08:40:00,
2013-01-28 03:50:00,16.2,16.2,30.36,North,2,1.0,1.0,100,0.00,,,0.00,Wunderground v.1.15,2013-01-28 08:50:00,
2013-01-28 04:00:00,16.4,16.4,30.37,North,2,1.0,3.0,100,0.00,,,0.00,Wunderground v.1.15,2013-01-28 09:00:00,
2013-01-28 04:05:00,16.4,16.4,30.37,North,2,2.0,3.0,100,0.00,,,0.00,Wunderground v.1.15,2013-01-28 09:05:00,
2013-01-28 04:15:00,16.5,16.5,30.37,North,2,1.0,2.0,100,0.00,,,0.00,Wunderground v.1.15,2013-01-28 09:15:00,
2013-01-28 04:20:00,16.5,16.5,30.37,North,2,1.0,1.0,100,0.00,,,0.00,Wunderground v.1.15,2013-01-28 09:20:00,
2013-01-28 04:30:00,16.7,16.7,30.36,North,2,0.0,0.0,100,0.00,,,0.00,Wunderground v.1.15,2013-01-28 09:30:00,
2013-01-28 04:35:00,16.7,16.7,30.36,North,2,0.0,1.0,100,0.00,,,0.00,Wunderground v.1.15,2013-01-28 09:35:00,
2013-01-28 04:40:00,16.7,16.7,30.36,North,2,1.0,1.0,100,0.00,,,0.00,Wunderground v.1.15,2013-01-28 09:40:00,
2013-01-28 04:45:00,16.7,16.7,30.36,North,2,1.0,1.0,100,0.00,,,0.00,Wunderground v.1.15,2013-01-28 09:45:00,
2013-01-28 04:50:00,16.7,16.7,30.36,North,2,1.0,1.0,100,0.00,,,0.00,Wunderground v.1.15,2013-01-28 09:50:00,
2013-01-28 04:55:00,16.7,16.7,30.36,North,2,1.0,1.0,100,0.00,,,0.00,Wunderground v.1.15,2013-01-28 09:55:00,
2013-01-28 05:00:00,16.9,16.9,30.36,North,2,1.0,2.0,100,0.00,,,0.00,Wunderground v.1.15,2013-01-28 10:00:00,
2013-01-28 05:05:00,17.2,17.2,30.36,North,2,2.0,2.0,100,0.00,,,0.00,Wunderground v.1.15,2013-01-28 10:05:00,
2013-01-28 05:15:00,17.7,17.7,30.36,North,2,1.0,2.0,100,0.00,,,0.00,Wunderground v.1.15,2013-01-28 10:15:00,
2013-01-28 05:20:00,17.7,17.7,30.36,North,2,1.0,1.0,100,0.00,,,0.00,Wunderground v.1.15,2013-01-28 10:20:00,
2013-01-28 05:25:00,17.8,17.8,30.36,North,2,1.0,1.0,100,0.00,,,0.00,Wunderground v.1.15,2013-01-28 10:25:00,
2013-01-28 05:35:00,17.8,17.8,30.36,North,2,2.0,2.0,100,0.00,,,0.00,Wunderground v.1.15,2013-01-28 10:35:00,
2013-01-28 05:44:00,18.0,18.0,30.36,North,2,2.0,2.0,100,0.00,,,0.00,Wunderground v.1.15,2013-01-28 10:44:00,
2013-01-28 05:50:00,18.0,18.0,30.36,North,2,2.0,2.0,100,0.00,,,0.00,Wunderground v.1.15,2013-01-28 10:50:00,
2013-01-28 05:59:00,18.0,18.0,30.37,North,2,1.0,1.0,100,0.00,,,0.00,Wunderground v.1.15,2013-01-28 10:59:00,
2013-01-28 06:05:00,18.0,18.0,30.37,North,2,2.0,2.0,100,0.00,,,0.00,Wunderground v.1.15,2013-01-28 11:05:00,
2013-01-28 06:10:00,17.8,17.8,30.37,North,2,2.0,3.0,100,0.00,,,0.00,Wunderground v.1.15,2013-01-28 11:10:00,
2013-01-28 06:20:00,17.7,17.7,30.36,North,2,2.0,2.0,100,0.00,,,0.00,Wunderground v.1.15,2013-01-28 11:20:00,
2013-01-28 06:30:00,17.7,17.7,30.36,North,2,1.0,1.0,100,0.00,,,0.00,Wunderground v.1.15,2013-01-28 11:30:00,
2013-01-28 06:35:00,17.5,17.5,30.36,North,2,1.0,1.0,100,0.00,,,0.00,Wunderground v.1.15,2013-01-28 11:35:00,
2013-01-28 06:40:00,17.3,17.3,30.36,North,2,1.0,1.0,100,0.00,,,0.00,Wunderground v.1.15,2013-01-28 11:40:00,
2013-01-28 06:50:00,17.3,17.3,30.36,North,2,1.0,1.0,100,0.00,,,0.00,Wunderground v.1.15,2013-01-28 11:50:00,
2013-01-28 07:00:00,17.2,17.2,30.36,North,2,1.0,1.0,100,0.00,,,0.00,Wunderground v.1.15,2013-01-28 12:00:00,
2013-01-28 07:10:00,17.7,17.7,30.36,North,2,1.0,1.0,100,0.00,,,0.00,Wunderground v.1.15,2013-01-28 12:10:00,
2013-01-28 07:15:00,18.1,18.1,30.35,North,2,1.0,1.0,100,0.00,,,0.00,Wunderground v.1.15,2013-01-28 12:15:00,
2013-01-28 07:20:00,18.9,18.9,30.35,North,2,0.0,1.0,100,0.00,,,0.00,Wunderground v.1.15,2013-01-28 12:20:00,
2013-01-28 07:29:00,20.2,20.2,30.36,North,2,0.0,1.0,100,0.00,,,0.00,Wunderground v.1.15,2013-01-28 12:29:00,
2013-01-28 07:35:00,20.5,20.5,30.36,North,2,1.0,1.0,100,0.00,,,0.00,Wunderground v.1.15,2013-01-28 12:35:00,
2013-01-28 07:45:00,20.6,20.6,30.36,North,2,1.0,1.0,100,0.00,,,0.00,Wunderground v.1.15,2013-01-28 12:45:00,
2013-01-28 07:50:00,20.8,20.8,30.36,North,2,1.0,3.0,100,0.00,,,0.00,Wunderground v.1.15,2013-01-28 12:50:00,
2013-01-28 08:00:00,21.4,21.4,30.37,North,2,2.0,2.0,100,0.00,,,0.00,Wunderground v.1.15,2013-01-28 13:00:00,
2013-01-28 08:05:00,22.1,22.1,30.37,North,2,2.0,2.0,100,0.00,,,0.00,Wunderground v.1.15,2013-01-28 13:05:00,
2013-01-28 08:15:00,23.5,23.5,30.37,North,2,2.0,3.0,100,0.00,,,0.00,Wunderground v.1.15,2013-01-28 13:15:00,
2013-01-28 08:25:00,24.8,24.8,30.37,North,2,1.0,2.0,100,0.00,,,0.00,Wunderground v.1.15,2013-01-28 13:25:00,
2013-01-28 08:35:00,25.6,25.6,30.35,North,2,1.0,2.0,100,0.00,,,0.00,Wunderground v.1.15,2013-01-28 13:35:00,
2013-01-28 08:45:00,26.0,26.0,30.35,North,2,2.0,2.0,100,0.00,,,0.00,Wunderground v.1.15,2013-01-28 13:45:00,
2013-01-28 08:55:00,27.0,27.0,30.35,North,2,2.0,3.0,100,0.00,,,0.00,Wunderground v.1.15,2013-01-28 13:55:00,
2013-01-28 09:00:00,27.9,27.9,30.36,North,2,2.0,2.0,100,0.00,,,0.00,Wunderground v.1.15,2013-01-28 14:00:00,
2013-01-28 09:05:00,28.5,28.5,30.36,North,2,2.0,4.0,100,0.00,,,0.00,Wunderground v.1.15,2013-01-28 14:05:00,
2013-01-28 09:14:00,30.3,30.3,30.36,North,2,1.0,2.0,100,0.00,,,0.00,Wunderground v.1.15,2013-01-28 14:14:00,
2013-01-28 09:20:00,30.7,30.7,30.36,North,0,2.0,2.0,100,0.00,,,0.00,Wunderground v.1.15,2013-01-28 14:20:00,
2013-01-28 09:30:00,31.5,31.5,30.36,North,356,2.0,5.0,100,0.00,,,0.00,Wunderground v.1.15,2013-01-28 14:30:00,
2013-01-28 09:35:00,31.8,31.8,30.36,North,354,3.0,5.0,100,0.00,,,0.00,Wunderground v.1.15,2013-01-28 14:35:00,
2013-01-28 09:45:00,31.9,31.9,30.35,North,349,3.0,3.0,100,0.00,,,0.00,Wunderground v.1.15,2013-01-28 14:45:00,
2013-01-28 09:55:00,32.5,32.5,30.35,NNW,347,3.0,4.0,100,0.00,,,0.00,Wunderground v.1.15,2013-01-28 14:55:00,
2013-01-28 10:05:00,31.5,31.5,30.35,NNW,340,4.0,4.0,100,0.00,,,0.00,Wunderground v.1.15,2013-01-28 15:05:00,
2013-01-28 10:10:00,30.7,30.7,30.35,NNW,340,3.0,3.0,100,0.00,,,0.00,Wunderground v.1.15,2013-01-28 15:10:00,
2013-01-28 10:20:00,30.3,30.3,30.35,NW,326,3.0,7.0,100,0.00,,,0.00,Wunderground v.1.15,2013-01-28 15:20:00,
2013-01-28 10:30:00,30.1,30.1,30.35,NW,325,3.0,3.0,100,0.00,,,0.00,Wunderground v.1.15,2013-01-28 15:30:00,
2013-01-28 10:35:00,30.7,30.7,30.35,NW,325,3.0,4.0,100,0.00,,,0.00,Wunderground v.1.15,2013-01-28 15:35:00,
2013-01-28 10:44:00,31.0,31.0,30.34,WNW,298,4.0,5.0,100,0.00,,,0.00,Wunderground v.1.15,2013-01-28 15:44:00,
2013-01-28 10:50:00,31.2,31.2,30.34,WNW,298,5.0,6.0,100,0.00,,,0.00,Wunderground v.1.15,2013-01-28 15:50:00,
2013-01-28 11:00:00,30.3,30.3,30.34,WNW,298,4.0,4.0,100,0.00,,,0.00,Wunderground v.1.15,2013-01-28 16:00:00,
2013-01-28 11:09:00,30.1,30.1,30.34,WNW,297,4.0,4.0,100,0.00,,,0.00,Wunderground v.1.15,2013-01-28 16:09:00,
2013-01-28 11:15:00,30.3,30.3,30.33,WNW,297,4.0,4.0,100,0.00,,,0.00,Wunderground v.1.15,2013-01-28 16:15:00,
2013-01-28 11:20:00,30.1,30.1,30.33,WNW,297,3.0,3.0,100,0.00,,,0.00,Wunderground v.1.15,2013-01-28 16:20:00,
2013-01-28 11:29:00,29.7,29.7,30.31,WNW,297,3.0,3.0,100,0.00,,,0.00,Wunderground v.1.15,2013-01-28 16:29:00,
2013-01-28 11:35:00,29.0,29.0,30.31,WNW,297,3.0,3.0,100,0.00,,,0.00,Wunderground v.1.15,2013-01-28 16:35:00,
2013-01-28 11:45:00,28.7,28.7,30.30,WNW,297,4.0,6.0,100,0.00,,,0.00,Wunderground v.1.15,2013-01-28 16:45:00,
2013-01-28 11:50:00,28.5,28.5,30.30,WNW,292,4.0,4.0,100,0.00,,,0.00,Wunderground v.1.15,2013-01-28 16:50:00,
2013-01-28 12:00:00,28.7,28.7,30.29,WNW,292,3.0,4.0,100,0.00,,,0.00,Wunderground v.1.15,2013-01-28 17:00:00,
2013-01-28 12:05:00,29.0,29.0,30.29,WNW,291,3.0,4.0,100,0.00,,,0.00,Wunderground v.1.15,2013-01-28 17:05:00,
2013-01-28 12:15:00,29.1,29.1,30.28,WNW,291,1.0,3.0,100,0.00,,,0.00,Wunderground v.1.15,2013-01-28 17:15:00,
2013-01-28 12:20:00,29.4,29.4,30.28,WNW,291,1.0,1.0,100,0.00,,,0.00,Wunderground v.1.15,2013-01-28 17:20:00,
2013-01-28 12:30:00,30.0,30.0,30.27,WNW,291,3.0,5.0,100,0.00,,,0.00,Wunderground v.1.15,2013-01-28 17:30:00,
2013-01-28 12:35:00,29.7,29.7,30.27,WNW,292,4.0,5.0,100,0.00,,,0.00,Wunderground v.1.15,2013-01-28 17:35:00,
2013-01-28 12:45:00,29.7,29.7,30.26,WNW,291,3.0,7.0,100,0.00,,,0.00,Wunderground v.1.15,2013-01-28 17:45:00,
2013-01-28 12:50:00,29.5,29.5,30.26,WNW,291,3.0,3.0,100,0.00,,,0.00,Wunderground v.1.15,2013-01-28 17:50:00,
2013-01-28 12:59:00,28.7,28.7,30.24,WNW,291,4.0,4.0,100,0.00,,,0.00,Wunderground v.1.15,2013-01-28 17:59:00,
2013-01-28 13:05:00,28.8,28.8,30.24,WNW,291,3.0,4.0,100,0.00,,,0.00,Wunderground v.1.15,2013-01-28 18:05:00,
2013-01-28 13:15:00,28.8,28.8,30.24,WNW,291,3.0,3.0,100,0.00,,,0.00,Wunderground v.1.15,2013-01-28 18:15:00,
2013-01-28 13:20:00,29.0,29.0,30.24,WNW,291,3.0,3.0,100,0.00,,,0.00,Wunderground v.1.15,2013-01-28 18:20:00,
2013-01-28 13:30:00,29.4,29.4,30.23,WNW,291,3.0,3.0,100,0.00,,,0.00,Wunderground v.1.15,2013-01-28 18:30:00,
2013-01-28 13:35:00,29.5,29.5,30.23,WNW,291,2.0,3.0,100,0.00,,,0.00,Wunderground v.1.15,2013-01-28 18:35:00,
2013-01-28 13:45:00,29.7,29.7,30.22,WNW,291,1.0,2.0,100,0.00,,,0.00,Wunderground v.1.15,2013-01-28 18:45:00,
2013-01-28 13:49:00,29.5,29.5,30.22,WNW,291,2.0,4.0,100,0.00,,,0.00,Wunderground v.1.15,2013-01-28 18:49:00,
2013-01-28 13:55:00,29.7,29.7,30.22,WNW,291,3.0,4.0,100,0.00,,,0.00,Wunderground v.1.15,2013-01-28 18:55:00,
2013-01-28 14:05:00,29.1,29.1,30.21,WNW,291,3.0,3.0,100,0.00,,,0.00,Wunderground v.1.15,2013-01-28 19:05:00,
2013-01-28 14:14:00,29.0,29.0,30.21,WNW,291,2.0,3.0,100,0.00,,,0.00,Wunderground v.1.15,2013-01-28 19:14:00,
2013-01-28 14:20:00,28.8,28.8,30.21,WNW,291,2.0,2.0,100,0.00,,,0.00,Wunderground v.1.15,2013-01-28 19:20:00,
2013-01-28 14:30:00,28.7,28.7,30.19,WNW,291,2.0,2.0,100,0.00,,,0.00,Wunderground v.1.15,2013-01-28 19:30:00,
2013-01-28 14:40:00,28.7,28.7,30.19,WNW,291,1.0,1.0,100,0.00,,,0.00,Wunderground v.1.15,2013-01-28 19:40:00,
2013-01-28 14:50:00,29.0,29.0,30.18,WNW,291,1.0,1.0,100,0.00,,,0.00,Wunderground v.1.15,2013-01-28 19:50:00,
2013-01-28 15:00:00,29.1,29.1,30.17,WNW,291,1.0,1.0,100,0.00,,,0.00,Wunderground v.1.15,2013-01-28 20:00:00,
2013-01-28 15:10:00,29.4,29.4,30.17,WNW,291,1.0,2.0,100,0.00,,,0.00,Wunderground v.1.15,2013-01-28 20:10:00,
2013-01-28 15:15:00,29.4,29.4,30.17,WNW,291,1.0,2.0,100,0.00,,,0.00,Wunderground v.1.15,2013-01-28 20:15:00,
2013-01-28 15:20:00,29.4,29.4,30.17,WNW,291,1.0,1.0,100,0.00,,,0.00,Wunderground v.1.15,2013-01-28 20:20:00,
2013-01-28 15:30:00,29.7,29.7,30.17,WNW,291,0.0,0.0,100,0.00,,,0.00,Wunderground v.1.15,2013-01-28 20:30:00,
2013-01-28 15:35:00,29.5,29.5,30.17,WNW,291,0.0,0.0,100,0.00,,,0.00,Wunderground v.1.15,2013-01-28 20:35:00,
2013-01-28 15:40:00,29.4,29.4,30.17,WNW,291,0.0,0.0,100,0.00,,,0.00,Wunderground v.1.15,2013-01-28 20:40:00,
2013-01-28 15:50:00,29.5,29.5,30.15,WNW,291,0.0,0.0,100,0.00,,,0.00,Wunderground v.1.15,2013-01-28 20:50:00,
2013-01-28 16:00:00,29.5,29.5,30.14,WNW,291,0.0,0.0,100,0.00,,,0.00,Wunderground v.1.15,2013-01-28 21:00:00,
2013-01-28 16:05:00,29.4,29.4,30.14,WNW,291,0.0,0.0,100,0.00,,,0.00,Wunderground v.1.15,2013-01-28 21:05:00,
2013-01-28 16:14:00,29.3,29.3,30.13,WNW,291,0.0,0.0,100,0.00,,,0.00,Wunderground v.1.15,2013-01-28 21:14:00,
2013-01-28 16:20:00,29.4,29.4,30.13,WNW,291,1.0,1.0,100,0.00,,,0.00,Wunderground v.1.15,2013-01-28 21:20:00,
2013-01-28 16:30:00,29.7,29.7,30.13,WNW,291,1.0,1.0,100,0.00,,,0.00,Wunderground v.1.15,2013-01-28 21:30:00,
2013-01-28 16:35:00,29.7,29.7,30.13,WNW,291,0.0,1.0,100,0.00,,,0.00,Wunderground v.1.15,2013-01-28 21:35:00,
2013-01-28 16:45:00,29.7,29.7,30.12,WNW,291,0.0,0.0,100,0.00,,,0.00,Wunderground v.1.15,2013-01-28 21:45:00,
2013-01-28 16:55:00,29.8,29.8,30.12,WNW,291,0.0,0.0,100,0.00,,,0.00,Wunderground v.1.15,2013-01-28 21:55:00,
2013-01-28 17:05:00,29.8,29.8,30.12,WNW,291,0.0,0.0,100,0.00,,,0.00,Wunderground v.1.15,2013-01-28 22:05:00,
2013-01-28 17:14:00,29.8,29.8,30.12,WNW,291,0.0,0.0,100,0.00,,,0.00,Wunderground v.1.15,2013-01-28 22:14:00,
2013-01-28 17:20:00,29.8,29.8,30.12,WNW,291,0.0,0.0,100,0.00,,,0.00,Wunderground v.1.15,2013-01-28 22:20:00,
2013-01-28 17:30:00,29.7,29.7,30.13,WNW,291,0.0,0.0,100,0.00,,,0.00,Wunderground v.1.15,2013-01-28 22:30:00,
2013-01-28 17:34:00,29.5,29.5,30.13,WNW,291,0.0,0.0,100,0.00,,,0.00,Wunderground v.1.15,2013-01-28 22:34:00,
2013-01-28 17:40:00,29.3,29.3,30.13,WNW,291,0.0,0.0,100,0.00,,,0.00,Wunderground v.1.15,2013-01-28 22:40:00,
2013-01-28 17:50:00,29.0,29.0,30.11,WNW,291,0.0,0.0,100,0.00,,,0.00,Wunderground v.1.15,2013-01-28 22:50:00,
2013-01-28 18:00:00,28.7,28.7,30.11,WNW,291,0.0,0.0,100,0.00,,,0.00,Wunderground v.1.15,2013-01-28 23:00:00,
2013-01-28 18:05:00,28.5,28.5,30.11,WNW,291,0.0,0.0,100,0.00,,,0.00,Wunderground v.1.15,2013-01-28 23:05:00,
2013-01-28 18:15:00,28.4,28.4,30.10,WNW,291,0.0,1.0,100,0.00,,,0.00,Wunderground v.1.15,2013-01-28 23:15:00,
2013-01-28 18:19:00,28.4,28.4,30.10,WNW,291,1.0,1.0,100,0.00,,,0.00,Wunderground v.1.15,2013-01-28 23:19:00,
2013-01-28 18:25:00,28.4,28.4,30.10,WNW,291,0.0,1.0,100,0.00,,,0.00,Wunderground v.1.15,2013-01-28 23:25:00,
2013-01-28 18:35:00,28.4,28.4,30.08,WNW,291,0.0,0.0,100,0.00,,,0.00,Wunderground v.1.15,2013-01-28 23:35:00,
2013-01-28 18:45:00,28.5,28.5,30.07,WNW,291,0.0,0.0,100,0.00,,,0.00,Wunderground v.1.15,2013-01-28 23:45:00,
2013-01-28 18:50:00,28.5,28.5,30.07,WNW,291,0.0,0.0,100,0.00,,,0.00,Wunderground v.1.15,2013-01-28 23:50:00,
2013-01-28 19:00:00,29.1,29.1,30.06,WNW,291,1.0,3.0,100,0.00,,,0.00,Wunderground v.1.15,2013-01-29 00:00:00,
2013-01-28 19:04:00,29.5,29.5,30.06,WSW,257,2.0,5.0,100,0.00,,,0.00,Wunderground v.1.15,2013-01-29 00:04:00,
2013-01-28 19:10:00,30.0,30.0,30.06,SSE,160,4.0,4.0,100,0.00,,,0.00,Wunderground v.1.15,2013-01-29 00:10:00,
2013-01-28 19:20:00,30.3,30.3,30.04,SSE,158,3.0,5.0,100,0.00,,,0.00,Wunderground v.1.15,2013-01-29 00:20:00,
2013-01-28 19:30:00,30.4,30.4,30.04,SSE,158,3.0,3.0,100,0.00,,,0.00,Wunderground v.1.15,2013-01-29 00:30:00,
2013-01-28 19:35:00,30.6,30.6,30.04,SSE,158,2.0,3.0,100,0.00,,,0.00,Wunderground v.1.15,2013-01-29 00:35:00,
2013-01-28 19:45:00,31.0,31.0,30.04,SSE,158,2.0,3.0,100,0.00,,,0.00,Wunderground v.1.15,2013-01-29 00:45:00,
2013-01-28 19:50:00,31.2,31.2,30.04,SSE,158,2.0,2.0,100,0.00,,,0.00,Wunderground v.1.15,2013-01-29 00:50:00,
2013-01-28 20:00:00,31.6,31.6,30.02,SSE,158,2.0,7.0,100,0.00,,,0.00,Wunderground v.1.15,2013-01-29 01:00:00,
2013-01-28 20:04:00,31.8,31.8,30.02,SSE,158,2.0,7.0,100,0.00,,,0.00,Wunderground v.1.15,2013-01-29 01:04:00,
2013-01-28 20:10:00,31.8,31.8,30.02,SSE,158,2.0,2.0,100,0.00,,,0.00,Wunderground v.1.15,2013-01-29 01:10:00,
2013-01-28 20:20:00,32.1,32.1,30.02,SSE,158,3.0,5.0,100,0.00,,,0.00,Wunderground v.1.15,2013-01-29 01:20:00,
2013-01-28 20:30:00,32.4,32.4,30.00,SSE,158,3.0,3.0,100,0.00,,,0.00,Wunderground v.1.15,2013-01-29 01:30:00,
2013-01-28 20:35:00,32.5,32.5,30.00,SSE,160,4.0,4.0,100,0.00,,,0.00,Wunderground v.1.15,2013-01-29 01:35:00,
2013-01-28 20:45:00,32.7,32.7,30.00,SSE,162,4.0,4.0,100,0.00,,,0.00,Wunderground v.1.15,2013-01-29 01:45:00,
2013-01-28 20:50:00,32.8,32.8,30.00,SSE,162,3.0,3.0,100,0.00,,,0.00,Wunderground v.1.15,2013-01-29 01:50:00,
2013-01-28 21:00:00,33.1,33.1,29.99,SSE,162,3.0,3.0,100,0.00,,,0.00,Wunderground v.1.15,2013-01-29 02:00:00,
2013-01-28 21:05:00,33.2,33.2,29.99,SSE,162,3.0,3.0,100,0.00,,,0.00,Wunderground v.1.15,2013-01-29 02:05:00,
2013-01-28 21:14:00,33.2,33.2,29.99,SSE,162,3.0,8.0,100,0.00,,,0.00,Wunderground v.1.15,2013-01-29 02:14:00,
2013-01-28 21:20:00,33.4,33.4,29.99,SSE,162,2.0,2.0,100,0.00,,,0.00,Wunderground v.1.15,2013-01-29 02:20:00,
2013-01-28 21:30:00,33.4,33.4,29.99,SSE,162,1.0,3.0,100,0.00,,,0.00,Wunderground v.1.15,2013-01-29 02:30:00,
2013-01-28 21:35:00,33.4,33.4,29.99,SSE,162,1.0,3.0,100,0.00,,,0.00,Wunderground v.1.15,2013-01-29 02:35:00,
2013-01-28 21:44:00,33.5,33.5,29.98,SSE,162,2.0,5.0,100,0.00,,,0.00,Wunderground v.1.15,2013-01-29 02:44:00,
2013-01-28 21:49:00,33.5,33.5,29.98,SSE,162,2.0,2.0,100,0.00,,,0.00,Wunderground v.1.15,2013-01-29 02:49:00,
2013-01-28 21:55:00,33.7,33.7,29.98,SSE,162,2.0,2.0,100,0.00,,,0.00,Wunderground v.1.15,2013-01-29 02:55:00,
2013-01-28 22:05:00,33.7,33.7,29.97,SSE,162,1.0,2.0,100,0.00,,,0.00,Wunderground v.1.15,2013-01-29 03:05:00,
2013-01-28 22:15:00,33.8,33.8,29.97,SSE,162,1.0,2.0,100,0.00,,,0.00,Wunderground v.1.15,2013-01-29 03:15:00,
2013-01-28 22:20:00,33.8,33.8,29.97,SSE,162,1.0,2.0,100,0.00,,,0.00,Wunderground v.1.15,2013-01-29 03:20:00,
2013-01-28 22:29:00,34.0,34.0,29.96,SSE,162,1.0,1.0,100,0.00,,,0.00,Wunderground v.1.15,2013-01-29 03:29:00,
2013-01-28 22:35:00,34.1,34.1,29.96,SSE,162,0.0,1.0,100,0.00,,,0.00,Wunderground v.1.15,2013-01-29 03:35:00,
2013-01-28 22:45:00,34.1,34.1,29.94,SSE,162,0.0,1.0,100,0.00,,,0.00,Wunderground v.1.15,2013-01-29 03:45:00,
2013-01-28 22:50:00,34.1,34.1,29.94,SSE,162,1.0,2.0,100,0.00,,,0.00,Wunderground v.1.15,2013-01-29 03:50:00,
2013-01-28 23:00:00,34.3,34.3,29.94,SSE,162,1.0,1.0,100,0.00,,,0.00,Wunderground v.1.15,2013-01-29 04:00:00,
2013-01-28 23:05:00,34.4,34.4,29.94,SSE,162,0.0,1.0,100,0.00,,,0.00,Wunderground v.1.15,2013-01-29 04:05:00,
2013-01-28 23:14:00,34.6,34.6,29.96,SSE,162,1.0,1.0,100,0.00,,,0.00,Wunderground v.1.15,2013-01-29 04:14:00,
2013-01-28 23:20:00,34.7,34.7,29.96,SSE,162,0.0,0.0,100,0.00,,,0.00,Wunderground v.1.15,2013-01-29 04:20:00,
2013-01-28 23:30:00,34.9,34.9,29.95,SSE,162,0.0,0.0,100,0.00,,,0.00,Wunderground v.1.15,2013-01-29 04:30:00,
2013-01-28 23:35:00,34.7,34.7,29.95,SSE,162,0.0,0.0,100,0.00,,,0.00,Wunderground v.1.15,2013-01-29 04:35:00,
2013-01-28 23:45:00,34.7,34.7,29.95,SSE,162,0.0,0.0,100,0.08,,,0.02,Wunderground v.1.15,2013-01-29 04:45:00,
2013-01-28 23:50:00,34.4,34.4,29.95,SSE,162,0.0,0.0,100,0.05,,,0.02,Wunderground v.1.15,2013-01-29 04:50:00,